OEJN/JED METAR and TAF weather

Enter ICAO airport designator
Station Type Date Time Source
OEJN METAR 2021/07/27 22:00 UTC NOAA

OEJN 272200Z 26005KT 9999 FEW040 32/23 Q1000 NOSIG


Station Type Date Time Source
OEJN Decoded METAR 2021/07/27 22:00 UTC NOAA

Jeddah King Abdul Aziz International Airport , Saudi Arabia (OEJN) 21-42N 039-11E 17M
Jul 27, 2021 - 06:00 PM EDT / 2021.07.27 2200 UTC
Wind: from the W (260 degrees) at 6 MPH (5 KT):0
Visibility: greater than 7 mile(s):0
Sky conditions: mostly clear
Temperature: 89 F (32 C)
Heat index: 96.8 F (36.0 C):1
Dew Point: 73 F (23 C)
Relative Humidity: 59%
Pressure (altimeter): 29.53 in. Hg (1000 hPa)
ob: OEJN 272200Z 26005KT 9999 FEW040 32/23 Q1000 NOSIG
cycle: 22

Station Type Date Time Source
OEJN TAF 2021/07/27 18:33 UTC NOAA

TAF OEJN 271800Z 2718/2824 33008KT 9999 FEW040
BECMG 2806/2808 30018KT

Example: see airport list